createdAt,value
2022-11-23T00:00:15.824Z,90.2
2022-11-23T00:01:18.632Z,90.2
2022-11-23T00:02:22.351Z,90.2
2022-11-23T00:03:24.990Z,90.2
2022-11-23T00:04:28.315Z,90.2
2022-11-23T00:05:30.730Z,90.2
2022-11-23T00:06:34.180Z,90.2
2022-11-23T00:07:39.169Z,90.3
2022-11-23T00:08:42.640Z,90.3
2022-11-23T00:09:45.686Z,90.3
2022-11-23T00:10:48.758Z,90.4
2022-11-23T00:11:51.521Z,90.5
2022-11-23T00:12:54.954Z,90.5
2022-11-23T00:13:57.741Z,90.5
2022-11-23T00:14:59.960Z,90.5
2022-11-23T00:16:02.226Z,90.4
2022-11-23T00:17:05.270Z,90.5
2022-11-23T00:18:08.310Z,90.6
2022-11-23T00:19:11.072Z,90.6
2022-11-23T00:20:13.562Z,90.6
2022-11-23T00:21:16.624Z,90.5
2022-11-23T00:22:20.078Z,90.5
2022-11-23T00:23:24.209Z,90.4
2022-11-23T00:24:26.697Z,90.4
2022-11-23T00:25:29.309Z,90.3
2022-11-23T00:26:32.434Z,90.4
2022-11-23T00:27:35.479Z,90.4
2022-11-23T00:28:38.052Z,90.4
2022-11-23T00:29:41.700Z,90.4
2022-11-23T00:30:44.924Z,90.3
2022-11-23T00:31:47.985Z,90.3
2022-11-23T00:32:50.560Z,90.3
2022-11-23T00:33:53.337Z,90.3
2022-11-23T00:34:56.495Z,90.4
2022-11-23T00:35:59.622Z,90.4
2022-11-23T00:37:02.504Z,90.4
2022-11-23T00:38:05.646Z,90.4
2022-11-23T00:39:09.931Z,90.3
2022-11-23T00:40:12.616Z,90.4
2022-11-23T00:41:15.669Z,90.4
2022-11-23T00:42:19.988Z,90.3
2022-11-23T00:43:22.575Z,90.3
2022-11-23T00:44:25.268Z,90.2
2022-11-23T00:45:28.241Z,90.1
2022-11-23T00:46:31.215Z,90
2022-11-23T00:47:34.064Z,90
2022-11-23T00:48:37.114Z,89.9
2022-11-23T00:49:39.963Z,89.9
2022-11-23T00:50:43.360Z,89.8
2022-11-23T00:51:46.963Z,89.8
2022-11-23T00:52:49.481Z,89.9
2022-11-23T00:53:52.934Z,89.9
2022-11-23T00:54:57.103Z,90
2022-11-23T00:56:00.500Z,90
2022-11-23T00:57:02.652Z,90.1
2022-11-23T00:58:04.595Z,90
2022-11-23T00:59:07.011Z,90
2022-11-23T01:00:10.350Z,89.9
2022-11-23T01:01:13.875Z,89.8
2022-11-23T01:02:16.860Z,89.8
2022-11-23T01:03:20.257Z,89.8
2022-11-23T01:04:23.580Z,89.7
2022-11-23T01:05:27.219Z,89.7
2022-11-23T01:06:30.314Z,89.8
2022-11-23T01:07:33.612Z,89.8
2022-11-23T01:08:36.546Z,89.7
2022-11-23T01:09:39.449Z,89.6
2022-11-23T01:10:43.541Z,89.6
2022-11-23T01:11:46.298Z,89.6
2022-11-23T01:12:48.707Z,89.6
2022-11-23T01:13:51.744Z,89.5
2022-11-23T01:14:54.334Z,89.5
2022-11-23T01:15:57.717Z,89.5
2022-11-23T01:17:00.291Z,89.5
2022-11-23T01:18:03.682Z,89.5
2022-11-23T01:19:06.761Z,89.5
2022-11-23T01:20:09.351Z,89.5
2022-11-23T01:21:12.048Z,89.5
2022-11-23T01:22:15.132Z,89.5
2022-11-23T01:23:17.650Z,89.5
2022-11-23T01:24:20.778Z,89.4
2022-11-23T01:25:23.640Z,89.3
2022-11-23T01:26:27.791Z,89.3
2022-11-23T01:27:31.119Z,89.2
2022-11-23T01:28:34.181Z,89.2
2022-11-23T01:29:37.508Z,89.1
2022-11-23T01:30:40.941Z,89
2022-11-23T01:31:47.873Z,89
2022-11-23T01:32:51.026Z,88.9
2022-11-23T01:33:54.726Z,88.8
2022-11-23T01:34:58.051Z,88.8
2022-11-23T01:36:00.813Z,88.8
2022-11-23T01:37:03.224Z,88.8
2022-11-23T01:38:06.293Z,88.8
2022-11-23T01:39:09.341Z,88.8
2022-11-23T01:40:12.034Z,88.7
2022-11-23T01:41:14.730Z,88.7
2022-11-23T01:42:19.606Z,88.7
2022-11-23T01:43:22.302Z,88.8
2022-11-23T01:44:25.369Z,88.8
2022-11-23T01:45:28.095Z,88.7
2022-11-23T01:46:31.046Z,88.6
2022-11-23T01:47:33.928Z,88.6
2022-11-23T01:48:36.620Z,88.6
2022-11-23T01:49:38.853Z,88.7
2022-11-23T01:50:42.264Z,88.7
2022-11-23T01:51:45.961Z,88.7
2022-11-23T01:52:48.927Z,88.6
2022-11-23T01:53:51.125Z,88.5
2022-11-23T01:54:54.453Z,88.4
2022-11-23T01:55:58.438Z,88.5
2022-11-23T01:57:01.641Z,88.5
2022-11-23T01:58:05.730Z,88.5
2022-11-23T01:59:09.080Z,88.5
2022-11-23T02:00:12.565Z,88.5
2022-11-23T02:01:15.565Z,88.5
2022-11-23T02:02:18.365Z,88.5
2022-11-23T02:03:21.138Z,88.4
2022-11-23T02:04:23.978Z,88.4
2022-11-23T02:05:27.307Z,88.4
2022-11-23T02:06:30.152Z,88.5
2022-11-23T02:07:33.717Z,88.6
2022-11-23T02:08:36.839Z,88.7
2022-11-23T02:09:39.327Z,88.7
2022-11-23T02:10:41.171Z,88.7
2022-11-23T02:11:43.589Z,88.8
2022-11-23T02:12:47.218Z,88.8
2022-11-23T02:13:51.297Z,88.9
2022-11-23T02:14:54.000Z,88.8
2022-11-23T02:15:57.710Z,88.8
2022-11-23T02:17:00.825Z,88.8
2022-11-23T02:18:03.975Z,88.7
2022-11-23T02:19:07.022Z,88.7
2022-11-23T02:20:10.205Z,88.7
2022-11-23T02:21:12.356Z,88.7
2022-11-23T02:22:14.863Z,88.8
2022-11-23T02:23:17.366Z,88.8
2022-11-23T02:24:20.414Z,88.8
2022-11-23T02:25:22.900Z,88.8
2022-11-23T02:26:25.590Z,88.7
2022-11-23T02:27:28.007Z,88.7
2022-11-23T02:28:31.086Z,88.7
2022-11-23T02:29:35.786Z,88.7
2022-11-23T02:30:38.827Z,88.7
2022-11-23T02:31:41.590Z,88.7
2022-11-23T02:32:44.822Z,88.6
2022-11-23T02:33:47.879Z,88.5
2022-11-23T02:34:50.569Z,88.5
2022-11-23T02:35:53.633Z,88.4
2022-11-23T02:36:56.894Z,88.4
2022-11-23T02:37:59.936Z,88.4
2022-11-23T02:39:02.517Z,88.4
2022-11-23T02:40:05.282Z,88.4
2022-11-23T02:41:08.056Z,88.4
2022-11-23T02:42:10.755Z,88.4
2022-11-23T02:43:13.639Z,88.3
2022-11-23T02:44:16.390Z,88.4
2022-11-23T02:45:20.503Z,88.4
2022-11-23T02:46:23.915Z,88.4
2022-11-23T02:47:27.375Z,88.3
2022-11-23T02:48:29.410Z,88.4
2022-11-23T02:49:34.028Z,88.4
2022-11-23T02:50:37.281Z,88.3
2022-11-23T02:51:40.046Z,88.3
2022-11-23T02:52:43.085Z,88.3
2022-11-23T02:53:45.840Z,88.3
2022-11-23T02:54:48.883Z,88.3
2022-11-23T02:55:51.376Z,88.3
2022-11-23T02:56:54.147Z,88.4
2022-11-23T02:57:57.212Z,88.3
2022-11-23T02:58:59.984Z,88.2
2022-11-23T03:00:02.789Z,88.2
2022-11-23T03:01:07.288Z,88.2
2022-11-23T03:02:10.232Z,88.2
2022-11-23T03:03:13.084Z,88.1
2022-11-23T03:04:15.599Z,88
2022-11-23T03:05:19.007Z,88
2022-11-23T03:06:21.701Z,88
2022-11-23T03:07:25.951Z,87.9
2022-11-23T03:08:28.299Z,88
2022-11-23T03:09:33.383Z,88
2022-11-23T03:10:36.895Z,88
2022-11-23T03:11:39.869Z,88
2022-11-23T03:12:42.402Z,88
2022-11-23T03:13:45.446Z,88
2022-11-23T03:14:48.489Z,88
2022-11-23T03:15:51.005Z,88
2022-11-23T03:16:55.166Z,88
2022-11-23T03:17:58.230Z,88
2022-11-23T03:19:01.276Z,87.9
2022-11-23T03:20:04.288Z,87.9
2022-11-23T03:21:07.062Z,87.8
2022-11-23T03:22:10.709Z,87.9
2022-11-23T03:23:13.242Z,87.9
2022-11-23T03:24:16.498Z,87.9
2022-11-23T03:25:19.343Z,87.9
2022-11-23T03:26:22.375Z,87.8
2022-11-23T03:27:25.855Z,87.7
2022-11-23T03:28:28.621Z,87.7
2022-11-23T03:29:32.733Z,87.7
2022-11-23T03:30:36.373Z,87.6
2022-11-23T03:31:39.367Z,87.6
2022-11-23T03:32:43.467Z,87.6
2022-11-23T03:33:47.170Z,87.5
2022-11-23T03:34:49.843Z,87.6
2022-11-23T03:35:52.882Z,87.6
2022-11-23T03:36:55.370Z,87.6
2022-11-23T03:37:58.572Z,87.7
2022-11-23T03:39:01.145Z,87.8
2022-11-23T03:40:03.725Z,87.8
2022-11-23T03:41:06.802Z,87.8
2022-11-23T03:42:10.577Z,87.8
2022-11-23T03:43:13.009Z,87.8
2022-11-23T03:44:15.432Z,87.8
2022-11-23T03:45:18.293Z,87.9
2022-11-23T03:46:21.063Z,87.8
2022-11-23T03:47:23.514Z,87.8
2022-11-23T03:48:27.661Z,87.8
2022-11-23T03:49:32.860Z,87.8
2022-11-23T03:50:36.672Z,87.7
2022-11-23T03:51:39.649Z,87.6
2022-11-23T03:52:42.292Z,87.6
2022-11-23T03:53:46.001Z,87.6
2022-11-23T03:54:48.577Z,87.6
2022-11-23T03:55:51.630Z,87.6
2022-11-23T03:56:54.500Z,87.6
2022-11-23T03:57:57.262Z,87.6
2022-11-23T03:59:00.697Z,87.6
2022-11-23T04:00:03.471Z,87.5
2022-11-23T04:01:07.393Z,87.5
2022-11-23T04:02:10.275Z,87.5
2022-11-23T04:03:12.995Z,87.4
2022-11-23T04:04:17.278Z,87.4
2022-11-23T04:05:19.977Z,87.3
2022-11-23T04:06:22.845Z,87.3
2022-11-23T04:07:25.959Z,87.3
2022-11-23T04:08:29.135Z,87.2
2022-11-23T04:09:33.472Z,87.3
2022-11-23T04:10:37.520Z,87.3
2022-11-23T04:11:40.216Z,87.3
2022-11-23T04:12:43.767Z,87.3
2022-11-23T04:13:46.461Z,87.3
2022-11-23T04:14:48.884Z,87.3
2022-11-23T04:15:51.942Z,87.2
2022-11-23T04:16:54.441Z,87.2
2022-11-23T04:17:57.414Z,87.2
2022-11-23T04:18:59.955Z,87.2
2022-11-23T04:20:04.094Z,87.4
2022-11-23T04:21:06.793Z,87.5
2022-11-23T04:22:09.366Z,87.5
2022-11-23T04:23:14.777Z,87.5
2022-11-23T04:24:17.823Z,87.5
2022-11-23T04:25:20.971Z,87.5
2022-11-23T04:26:23.678Z,87.5
2022-11-23T04:27:27.122Z,87.5
2022-11-23T04:28:30.266Z,87.4
2022-11-23T04:29:35.188Z,87.3
2022-11-23T04:30:38.077Z,87.3
2022-11-23T04:31:41.141Z,87.2
2022-11-23T04:32:43.937Z,87.2
2022-11-23T04:33:47.352Z,87.2
2022-11-23T04:34:50.270Z,87.2
2022-11-23T04:35:54.373Z,87.2
2022-11-23T04:36:56.798Z,87.1
2022-11-23T04:37:59.639Z,87.1
2022-11-23T04:39:02.407Z,87.1
2022-11-23T04:40:04.829Z,87.2
2022-11-23T04:41:07.881Z,87.2
2022-11-23T04:42:11.035Z,87.2
2022-11-23T04:43:13.459Z,87.1
2022-11-23T04:44:16.225Z,87.1
2022-11-23T04:45:19.056Z,87.1
2022-11-23T04:46:22.284Z,87
2022-11-23T04:47:24.652Z,87
2022-11-23T04:48:26.860Z,87
2022-11-23T04:49:31.507Z,87
2022-11-23T04:50:34.764Z,87
2022-11-23T04:51:38.897Z,87
2022-11-23T04:52:41.745Z,87
2022-11-23T04:53:45.150Z,87
2022-11-23T04:54:48.207Z,87
2022-11-23T04:55:50.710Z,86.9
2022-11-23T04:56:53.940Z,87
2022-11-23T04:57:57.011Z,87
2022-11-23T04:59:00.051Z,87.1
2022-11-23T05:00:02.557Z,87.1
2022-11-23T05:01:05.614Z,87
2022-11-23T05:02:07.846Z,86.9
2022-11-23T05:03:10.688Z,86.8
2022-11-23T05:04:19.125Z,86.8
2022-11-23T05:05:22.175Z,86.8
2022-11-23T05:06:24.679Z,86.8
2022-11-23T05:07:29.037Z,86.8
2022-11-23T05:08:32.616Z,86.9
2022-11-23T05:09:35.941Z,86.9
2022-11-23T05:10:39.002Z,86.9
2022-11-23T05:11:41.430Z,86.9
2022-11-23T05:12:44.409Z,87
2022-11-23T05:13:47.261Z,87
2022-11-23T05:14:50.107Z,87.1
2022-11-23T05:15:53.372Z,87
2022-11-23T05:16:55.513Z,87
2022-11-23T05:18:00.350Z,87
2022-11-23T05:19:02.759Z,87
2022-11-23T05:20:04.425Z,87
2022-11-23T05:21:07.184Z,86.9
2022-11-23T05:22:10.008Z,86.9
2022-11-23T05:23:14.096Z,86.9
2022-11-23T05:24:17.142Z,86.9
2022-11-23T05:25:19.568Z,86.9
2022-11-23T05:26:22.929Z,87
2022-11-23T05:27:25.971Z,86.9
2022-11-23T05:28:42.887Z,86.9
2022-11-23T05:29:45.869Z,87
2022-11-23T05:30:48.839Z,87
2022-11-23T05:31:52.555Z,87
2022-11-23T05:32:55.326Z,87
2022-11-23T05:33:58.380Z,87
2022-11-23T05:35:01.494Z,86.9
2022-11-23T05:36:04.201Z,87
2022-11-23T05:37:07.629Z,86.9
2022-11-23T05:38:10.625Z,86.9
2022-11-23T05:39:14.855Z,86.9
2022-11-23T05:40:17.653Z,86.9
2022-11-23T05:41:20.690Z,86.9
2022-11-23T05:42:23.110Z,86.9
2022-11-23T05:43:26.536Z,86.8
2022-11-23T05:44:29.782Z,86.8
2022-11-23T05:45:33.488Z,86.7
2022-11-23T05:46:36.529Z,86.6
2022-11-23T05:47:39.582Z,86.5
2022-11-23T05:48:42.392Z,86.4
2022-11-23T05:49:45.387Z,86.4
2022-11-23T05:50:48.348Z,86.4
2022-11-23T05:51:51.697Z,86.4
2022-11-23T05:52:54.815Z,86.3
2022-11-23T05:53:58.204Z,86.2
2022-11-23T05:55:02.379Z,86.2
2022-11-23T05:56:05.082Z,86.2
2022-11-23T05:57:08.129Z,86.2
2022-11-23T05:58:11.486Z,86.4
2022-11-23T05:59:13.979Z,86.4
2022-11-23T06:00:16.754Z,86.4
2022-11-23T06:01:19.446Z,86.4
2022-11-23T06:02:22.333Z,86.4
2022-11-23T06:03:25.658Z,86.3
2022-11-23T06:04:28.633Z,86.4
2022-11-23T06:05:31.976Z,86.3
2022-11-23T06:06:35.090Z,86.4
2022-11-23T06:07:37.987Z,86.4
2022-11-23T06:08:48.972Z,86.5
2022-11-23T06:09:52.185Z,86.5
2022-11-23T06:10:56.254Z,86.6
2022-11-23T06:12:00.044Z,86.7
2022-11-23T06:13:03.095Z,86.7
2022-11-23T06:14:15.240Z,86.7
2022-11-23T06:15:17.947Z,86.8
2022-11-23T06:16:21.034Z,86.8
2022-11-23T06:17:24.188Z,86.8
2022-11-23T06:18:27.321Z,86.7
2022-11-23T06:19:30.257Z,86.7
2022-11-23T06:20:33.982Z,86.7
2022-11-23T06:21:36.947Z,86.6
2022-11-23T06:22:39.662Z,86.5
2022-11-23T06:23:43.096Z,86.5
2022-11-23T06:24:46.140Z,86.5
2022-11-23T06:25:49.137Z,86.5
2022-11-23T06:26:53.285Z,86.5
2022-11-23T06:27:56.637Z,86.6
2022-11-23T06:28:59.792Z,86.5
2022-11-23T06:30:02.874Z,86.5
2022-11-23T06:31:05.573Z,86.6
2022-11-23T06:32:08.634Z,86.6
2022-11-23T06:33:11.713Z,86.7
2022-11-23T06:34:14.789Z,86.7
2022-11-23T06:35:16.931Z,86.6
2022-11-23T06:36:19.349Z,86.7
2022-11-23T06:37:22.123Z,86.7
2022-11-23T06:38:25.169Z,86.7
2022-11-23T06:39:28.250Z,86.6
2022-11-23T06:40:31.677Z,86.6
2022-11-23T06:41:35.438Z,86.5
2022-11-23T06:42:41.601Z,86.5
2022-11-23T06:43:44.825Z,86.4
2022-11-23T06:44:47.960Z,86.5
2022-11-23T06:45:51.099Z,86.5
2022-11-23T06:46:54.157Z,86.6
2022-11-23T06:47:56.932Z,86.5
2022-11-23T06:48:59.972Z,86.4
2022-11-23T06:50:03.054Z,86.4
2022-11-23T06:51:06.045Z,86.3
2022-11-23T06:52:09.456Z,86.3
2022-11-23T06:53:11.665Z,86.2
2022-11-23T06:54:14.375Z,86.2
2022-11-23T06:55:18.130Z,86.2
2022-11-23T06:56:20.981Z,86.2
2022-11-23T06:57:24.036Z,86.2
2022-11-23T06:58:28.166Z,86.1
2022-11-23T06:59:32.108Z,86.1
2022-11-23T07:00:36.791Z,86.1
2022-11-23T07:01:40.663Z,86.1
2022-11-23T07:02:44.096Z,86.1
2022-11-23T07:03:47.507Z,86
2022-11-23T07:04:50.698Z,86
2022-11-23T07:05:53.571Z,85.9
2022-11-23T07:06:57.177Z,85.9
2022-11-23T07:07:59.963Z,85.9
2022-11-23T07:09:03.284Z,86
2022-11-23T07:10:08.906Z,85.9
2022-11-23T07:11:12.333Z,85.9
2022-11-23T07:12:15.951Z,85.9
2022-11-23T07:13:19.025Z,85.9
2022-11-23T07:14:23.130Z,85.9
2022-11-23T07:15:26.560Z,85.9
2022-11-23T07:16:29.814Z,86
2022-11-23T07:17:32.852Z,86
2022-11-23T07:18:36.033Z,86
2022-11-23T07:19:39.093Z,86.1
2022-11-23T07:20:42.415Z,86.1
2022-11-23T07:21:45.197Z,86.1
2022-11-23T07:22:48.451Z,86
2022-11-23T07:23:51.650Z,86
2022-11-23T07:24:54.906Z,86
2022-11-23T07:25:57.756Z,85.9
2022-11-23T07:27:01.019Z,85.9
2022-11-23T07:28:04.449Z,85.8
2022-11-23T07:29:07.333Z,85.8
2022-11-23T07:30:11.601Z,85.8
2022-11-23T07:31:14.140Z,85.7
2022-11-23T07:32:16.927Z,85.7
2022-11-23T07:33:19.890Z,85.6
2022-11-23T07:34:23.054Z,85.6
2022-11-23T07:35:26.375Z,85.6
2022-11-23T07:36:29.226Z,85.6
2022-11-23T07:37:31.986Z,85.6
2022-11-23T07:38:35.498Z,85.6
2022-11-23T07:40:00.745Z,85.6
2022-11-23T07:41:05.533Z,85.7
2022-11-23T07:42:45.646Z,85.7
2022-11-23T07:43:48.637Z,85.7
2022-11-23T07:44:51.812Z,85.6
2022-11-23T07:45:55.910Z,85.5
2022-11-23T07:46:58.695Z,85.4
2022-11-23T07:48:02.016Z,85.3
2022-11-23T07:49:04.605Z,85.3
2022-11-23T07:50:07.966Z,85.3
2022-11-23T07:51:10.727Z,85.3
2022-11-23T07:52:14.140Z,85.3
2022-11-23T07:53:16.833Z,85.3
2022-11-23T07:54:25.030Z,85.3
2022-11-23T07:55:28.659Z,85.3
2022-11-23T07:56:32.009Z,85.3
2022-11-23T07:57:35.053Z,85.5
2022-11-23T07:58:38.532Z,85.5
2022-11-23T07:59:41.592Z,85.5
2022-11-23T08:00:44.383Z,85.5
2022-11-23T08:01:59.326Z,85.5
2022-11-23T08:03:30.970Z,85.5
2022-11-23T08:04:35.664Z,85.4
2022-11-23T08:05:38.803Z,85.3
2022-11-23T08:06:41.605Z,85.4
2022-11-23T08:07:44.597Z,85.4
2022-11-23T08:08:47.876Z,85.4
2022-11-23T08:09:50.952Z,85.5
2022-11-23T08:10:55.658Z,85.5
2022-11-23T08:11:58.711Z,85.5
2022-11-23T08:13:02.112Z,85.5
2022-11-23T08:14:04.741Z,85.6
2022-11-23T08:15:07.800Z,85.5
2022-11-23T08:16:11.574Z,85.5
2022-11-23T08:17:15.677Z,85.4
2022-11-23T08:18:18.446Z,85.4
2022-11-23T08:19:21.574Z,85.4
2022-11-23T08:20:25.420Z,85.3
2022-11-23T08:21:28.841Z,85.3
2022-11-23T08:22:31.898Z,85.3
2022-11-23T08:23:35.023Z,85.2
2022-11-23T08:24:37.990Z,85.1
2022-11-23T08:25:41.127Z,85
2022-11-23T08:26:43.896Z,84.9
2022-11-23T08:27:46.388Z,84.9
2022-11-23T08:28:49.786Z,84.9
2022-11-23T08:29:52.556Z,84.9
2022-11-23T08:30:55.981Z,84.8
2022-11-23T08:31:59.333Z,84.8
2022-11-23T08:33:03.600Z,84.7
2022-11-23T08:34:06.569Z,84.7
2022-11-23T08:35:09.901Z,84.7
2022-11-23T08:36:13.536Z,84.6
2022-11-23T08:37:16.906Z,84.6
2022-11-23T08:38:19.575Z,84.5
2022-11-23T08:39:23.022Z,84.5
2022-11-23T08:40:27.539Z,84.6
2022-11-23T08:41:31.115Z,84.6
2022-11-23T08:42:34.833Z,84.7
2022-11-23T08:43:37.880Z,84.6
2022-11-23T08:44:41.619Z,84.5
2022-11-23T08:45:44.670Z,84.4
2022-11-23T08:46:48.095Z,84.3
2022-11-23T08:47:51.503Z,84.3
2022-11-23T08:48:55.667Z,84.3
2022-11-23T08:49:59.308Z,84.3
2022-11-23T08:51:02.103Z,84.3
2022-11-23T08:52:05.796Z,84.3
2022-11-23T08:53:09.840Z,84.4
2022-11-23T08:54:13.272Z,84.4
2022-11-23T08:55:15.694Z,84.4
2022-11-23T08:56:18.840Z,84.3
2022-11-23T08:57:21.960Z,84.3
2022-11-23T08:58:24.804Z,84.2
2022-11-23T08:59:27.578Z,84.2
2022-11-23T09:00:30.346Z,84.3
2022-11-23T09:01:33.597Z,84.5
2022-11-23T09:02:36.494Z,84.5
2022-11-23T09:03:40.586Z,84.5
2022-11-23T09:04:44.685Z,84.4
2022-11-23T09:05:48.195Z,84.3
2022-11-23T09:06:51.176Z,84.2
2022-11-23T09:07:54.694Z,84.3
2022-11-23T09:08:57.136Z,84.2
2022-11-23T09:09:59.879Z,84.2
2022-11-23T09:11:02.664Z,84.2
2022-11-23T09:12:05.806Z,84.2
2022-11-23T09:13:09.239Z,84.1
2022-11-23T09:14:12.600Z,84
2022-11-23T09:15:16.026Z,83.9
2022-11-23T09:16:19.397Z,84
2022-11-23T09:17:22.094Z,83.9
2022-11-23T09:18:24.082Z,84
2022-11-23T09:19:27.429Z,84
2022-11-23T09:20:31.632Z,83.9
2022-11-23T09:21:35.261Z,83.8
2022-11-23T09:22:38.327Z,83.8
2022-11-23T09:23:41.019Z,83.8
2022-11-23T09:24:44.768Z,83.8
2022-11-23T09:25:47.519Z,83.9
2022-11-23T09:26:50.287Z,84
2022-11-23T09:27:53.523Z,84
2022-11-23T09:28:56.306Z,84.1
2022-11-23T09:29:59.674Z,84
2022-11-23T09:31:02.620Z,84
2022-11-23T09:32:05.987Z,83.9
2022-11-23T09:33:08.829Z,83.8
2022-11-23T09:34:12.153Z,83.9
2022-11-23T09:35:15.495Z,83.9
2022-11-23T09:36:19.653Z,83.8
2022-11-23T09:37:22.457Z,83.8
2022-11-23T09:38:58.243Z,83.8
2022-11-23T09:40:01.814Z,83.7
2022-11-23T09:41:05.223Z,83.6
2022-11-23T09:42:08.202Z,83.6
2022-11-23T09:43:12.000Z,83.6
2022-11-23T09:44:15.637Z,83.7
2022-11-23T09:45:18.755Z,83.7
2022-11-23T09:46:22.163Z,83.8
2022-11-23T09:47:25.810Z,83.8
2022-11-23T09:48:28.235Z,83.7
2022-11-23T09:49:30.682Z,83.7
2022-11-23T09:50:34.495Z,83.6
2022-11-23T09:51:38.711Z,83.6
2022-11-23T09:52:42.069Z,83.6
2022-11-23T09:53:45.333Z,83.7
2022-11-23T09:54:48.687Z,83.7
2022-11-23T09:55:51.821Z,83.7
2022-11-23T09:57:03.171Z,83.7
2022-11-23T09:58:06.442Z,83.7
2022-11-23T09:59:10.497Z,83.8
2022-11-23T10:00:13.554Z,83.9
2022-11-23T10:01:17.522Z,83.9
2022-11-23T10:02:21.056Z,84
2022-11-23T10:03:24.414Z,84.1
2022-11-23T10:04:26.873Z,84.2
2022-11-23T10:05:30.005Z,84.3
2022-11-23T10:06:33.468Z,84.4
2022-11-23T10:07:37.873Z,84.4
2022-11-23T10:08:41.646Z,84.3
2022-11-23T10:09:44.622Z,84.3
2022-11-23T10:10:47.468Z,84.3
2022-11-23T10:11:50.141Z,84.2
2022-11-23T10:12:53.828Z,84.2
2022-11-23T10:13:57.520Z,84.2
2022-11-23T10:15:00.223Z,84.2
2022-11-23T10:16:03.695Z,84.2
2022-11-23T10:17:06.446Z,84.2
2022-11-23T10:18:09.765Z,84.3
2022-11-23T10:19:12.559Z,84.5
2022-11-23T10:20:16.193Z,84.8
2022-11-23T10:21:19.539Z,84.7
2022-11-23T10:22:22.946Z,84.6
2022-11-23T10:23:27.052Z,84.6
2022-11-23T10:24:30.763Z,84.7
2022-11-23T10:25:40.638Z,84.8
2022-11-23T10:26:43.704Z,84.7
2022-11-23T10:27:46.769Z,84.7
2022-11-23T10:28:50.724Z,84.8
2022-11-23T10:29:54.055Z,84.8
2022-11-23T10:30:57.137Z,84.7
2022-11-23T10:32:00.209Z,84.6
2022-11-23T10:33:03.060Z,84.5
2022-11-23T10:34:06.113Z,84.5
2022-11-23T10:35:09.235Z,84.6
2022-11-23T10:36:12.311Z,84.7
2022-11-23T10:37:15.736Z,84.8
2022-11-23T10:38:20.657Z,85
2022-11-23T10:39:24.828Z,85.2
2022-11-23T10:40:27.333Z,85.2
2022-11-23T10:41:30.660Z,85.4
2022-11-23T10:42:34.353Z,85.5
2022-11-23T10:43:37.341Z,85.5
2022-11-23T10:44:40.112Z,85.5
2022-11-23T10:45:43.578Z,85.3
2022-11-23T10:46:47.283Z,85.2
2022-11-23T10:47:50.716Z,85.2
2022-11-23T10:48:53.690Z,85.2
2022-11-23T10:49:57.115Z,85.2
2022-11-23T10:51:00.584Z,85.2
2022-11-23T10:52:03.977Z,85.2
2022-11-23T10:53:06.848Z,85
2022-11-23T10:54:09.850Z,84.9
2022-11-23T10:55:13.989Z,84.8
2022-11-23T10:56:16.799Z,84.9
2022-11-23T10:57:19.770Z,84.9
2022-11-23T10:58:21.648Z,85
2022-11-23T10:59:24.347Z,85.2
2022-11-23T11:00:32.075Z,85.3
2022-11-23T11:01:35.335Z,85.4
2022-11-23T11:02:38.199Z,85.2
2022-11-23T11:03:40.980Z,85.1
2022-11-23T11:04:44.116Z,85.2
2022-11-23T11:06:12.369Z,85.1
2022-11-23T11:07:15.806Z,85.2
2022-11-23T11:08:19.296Z,85.2
2022-11-23T11:09:22.479Z,85.4
2022-11-23T11:10:26.598Z,85.3
2022-11-23T11:11:29.522Z,85.3
2022-11-23T11:12:32.611Z,85.2
2022-11-23T11:13:36.214Z,85.3
2022-11-23T11:14:46.222Z,85.4
2022-11-23T11:15:51.231Z,86.5
2022-11-23T11:16:54.678Z,85.1
2022-11-23T11:17:57.448Z,84.8
2022-11-23T11:18:59.687Z,84.8
2022-11-23T11:20:03.355Z,84.9
2022-11-23T11:21:06.608Z,84.9
2022-11-23T11:22:09.938Z,85.1
2022-11-23T11:23:11.888Z,85.1
2022-11-23T11:24:15.007Z,85.3
2022-11-23T11:25:18.012Z,85.4
2022-11-23T11:26:22.112Z,85.5
2022-11-23T11:27:24.611Z,85.5
2022-11-23T11:28:28.596Z,85.4
2022-11-23T11:29:40.723Z,85.4
2022-11-23T11:30:43.428Z,85.5
2022-11-23T11:31:47.037Z,85.5
2022-11-23T11:32:50.116Z,85.5
2022-11-23T11:33:53.813Z,85.5
2022-11-23T11:34:57.319Z,85.6
2022-11-23T11:36:00.580Z,85.6
2022-11-23T11:37:03.974Z,85.7
2022-11-23T11:38:07.380Z,85.6
2022-11-23T11:39:20.839Z,85.6
2022-11-23T11:40:23.706Z,85.8
2022-11-23T11:41:27.851Z,85.9
2022-11-23T11:42:31.189Z,86
2022-11-23T11:43:41.564Z,86
2022-11-23T11:44:45.142Z,86
2022-11-23T11:46:31.065Z,86.2
2022-11-23T11:47:34.602Z,86.3
2022-11-23T11:48:38.309Z,86.3
2022-11-23T11:49:41.565Z,86.4
2022-11-23T11:50:44.663Z,86.5
2022-11-23T11:51:48.044Z,86.5
2022-11-23T11:52:51.976Z,86.6
2022-11-23T11:53:54.957Z,86.6
2022-11-23T11:54:57.390Z,86.5
2022-11-23T11:55:59.979Z,86.5
2022-11-23T11:57:04.241Z,86.5
2022-11-23T11:58:07.720Z,86.5
2022-11-23T11:59:10.842Z,86.4
2022-11-23T12:00:13.768Z,86.4
2022-11-23T12:01:16.540Z,86.4
2022-11-23T12:02:20.136Z,86.4
2022-11-23T12:03:24.204Z,86.4
2022-11-23T12:04:27.878Z,86.6
2022-11-23T12:05:31.481Z,86.8
2022-11-23T12:06:33.978Z,86.9
2022-11-23T12:07:37.031Z,86.9
2022-11-23T12:08:39.662Z,87
2022-11-23T12:09:42.652Z,87
2022-11-23T12:10:46.372Z,87.1
2022-11-23T12:11:49.186Z,87.1
2022-11-23T12:12:53.295Z,87.1
2022-11-23T12:13:56.656Z,87.1
2022-11-23T12:15:00.365Z,87.2
2022-11-23T12:16:03.259Z,87.1
2022-11-23T12:21:02.548Z,87.1
2022-11-23T12:22:07.552Z,86.8
2022-11-23T12:23:10.955Z,86.9
2022-11-23T12:24:13.925Z,86.9
2022-11-23T12:25:15.850Z,86.8
2022-11-23T12:26:18.544Z,86.9
2022-11-23T12:27:21.073Z,86.8
2022-11-23T12:28:25.234Z,86.7
2022-11-23T12:29:28.281Z,86.6
2022-11-23T12:30:31.612Z,86.5
2022-11-23T12:31:34.386Z,86.3
2022-11-23T12:32:37.416Z,85.6
2022-11-23T12:33:40.071Z,85.2
2022-11-23T12:34:43.407Z,84.8
2022-11-23T12:35:47.122Z,84.5
2022-11-23T12:36:50.104Z,84.3
2022-11-23T12:37:53.072Z,84
2022-11-23T12:38:56.511Z,83.7
2022-11-23T12:39:59.590Z,83.4
2022-11-23T12:41:03.022Z,83
2022-11-23T12:42:06.087Z,82.8
2022-11-23T12:43:09.720Z,82.8
2022-11-23T12:44:13.853Z,82.8
2022-11-23T12:45:16.736Z,82.9
2022-11-23T12:46:20.274Z,83
2022-11-23T12:47:23.538Z,82.9
2022-11-23T12:48:27.151Z,82.9
2022-11-23T12:49:30.984Z,83.1
2022-11-23T12:50:42.555Z,83
2022-11-23T12:51:45.603Z,82.8
2022-11-23T12:52:48.693Z,82.7
2022-11-23T12:53:52.014Z,82.6
2022-11-23T12:54:55.913Z,82.6
2022-11-23T12:55:59.899Z,82.4
2022-11-23T12:57:04.042Z,82.4
2022-11-23T12:58:08.724Z,82.4
2022-11-23T12:59:14.273Z,82.5
2022-11-23T13:00:19.935Z,82.8
2022-11-23T13:01:33.197Z,82.9
2022-11-23T13:02:39.551Z,83.1
2022-11-23T13:03:45.729Z,83.1
2022-11-23T13:04:51.978Z,83.1
2022-11-23T13:05:59.445Z,83.2
2022-11-23T13:07:46.239Z,83.2
2022-11-23T13:08:56.121Z,83
2022-11-23T13:10:03.186Z,83
2022-11-23T13:11:07.838Z,83
2022-11-23T13:12:14.391Z,83
2022-11-23T13:13:20.611Z,83
2022-11-23T13:14:27.145Z,82.8
2022-11-23T13:15:33.632Z,82.8
2022-11-23T13:16:41.419Z,82.8
2022-11-23T13:17:47.559Z,82.8
2022-11-23T13:18:53.334Z,82.9
2022-11-23T13:19:59.420Z,82.9
2022-11-23T13:21:05.802Z,82.9
2022-11-23T13:22:11.572Z,83
2022-11-23T13:23:17.104Z,83.1
2022-11-23T13:24:22.060Z,83
2022-11-23T13:25:27.086Z,83
2022-11-23T13:26:31.501Z,83
2022-11-23T13:27:36.415Z,83
2022-11-23T13:28:40.107Z,83
2022-11-23T13:29:43.908Z,82.9
2022-11-23T13:31:18.778Z,82.8
2022-11-23T13:32:22.719Z,83.1
2022-11-23T13:33:38.184Z,83.3
2022-11-23T13:34:41.648Z,83.5
2022-11-23T13:35:44.664Z,83.7
2022-11-23T13:37:14.899Z,83.8
2022-11-23T13:38:18.874Z,84.1
2022-11-23T13:39:22.045Z,84.2
2022-11-23T13:40:25.449Z,84.3
2022-11-23T13:41:34.873Z,84.4
2022-11-23T13:42:38.298Z,84.5
2022-11-23T13:43:41.642Z,84.5
2022-11-23T13:44:45.360Z,84.5
2022-11-23T13:45:48.943Z,84.4
2022-11-23T13:46:53.085Z,84.4
2022-11-23T13:47:56.490Z,84.5
2022-11-23T13:48:59.409Z,84.5
2022-11-23T13:50:02.477Z,84.7
2022-11-23T13:51:05.537Z,84.6
2022-11-23T13:52:08.506Z,84.6
2022-11-23T13:53:11.714Z,84.5
2022-11-23T13:54:14.794Z,84.4
2022-11-23T13:55:17.590Z,84.3
2022-11-23T13:56:21.090Z,84.2
2022-11-23T13:57:23.592Z,84.1
2022-11-23T13:58:26.809Z,84
2022-11-23T13:59:30.429Z,83.8
2022-11-23T14:00:34.157Z,83.8
2022-11-23T14:01:37.808Z,83.8
2022-11-23T14:02:44.096Z,83.6
2022-11-23T14:03:46.929Z,83.6
2022-11-23T14:04:49.706Z,83.4
2022-11-23T14:05:52.686Z,83.5
2022-11-23T14:06:56.098Z,83.5
2022-11-23T14:07:59.784Z,83.6
2022-11-23T14:09:03.593Z,83.8
2022-11-23T14:10:11.317Z,83.7
2022-11-23T14:11:14.375Z,83.7
2022-11-23T14:12:17.549Z,83.7
2022-11-23T14:13:20.097Z,83.6
2022-11-23T14:14:23.422Z,83.6
2022-11-23T14:15:26.668Z,83.6
2022-11-23T14:16:30.119Z,83.5
2022-11-23T14:17:33.376Z,83.6
2022-11-23T14:18:37.597Z,83.5
2022-11-23T14:19:40.730Z,83.5